Time;durP1;ratioP1;P1;durP2;ratioP2;P2;SDS_P1;SDS_P2;PMS_P1;PMS_P2;Temp;Humidity;BMP_temperature;BMP_pressure;BME280_temperature;BME280_humidity;BME280_pressure;Samples;Min_cycle;Max_cycle;Signal;HPM_P1;HPM_P2
2022/01/04 00:00:48;;;;;;;0.50;0.50;;;;;;;11.20;65.73;94676.19;4395445;32;20189;-64
2022/01/04 00:03:13;;;;;;;0.60;0.50;;;;;;;11.21;65.65;94678.53;4399526;32;20226;-61
2022/01/04 00:05:39;;;;;;;0.57;0.57;;;;;;;11.26;65.41;94675.69;4403513;32;20252;-61
2022/01/04 00:08:08;;;;;;;0.97;0.50;;;;;;;11.19;65.31;94658.69;4394941;32;20196;-61
2022/01/04 00:10:34;;;;;;;0.87;0.60;;;;;;;11.20;66.66;94665.56;4393196;32;20193;-61
2022/01/04 00:15:44;;;;;;;0.40;0.40;;;;;;;11.19;64.68;94656.81;4391773;32;20207;-61
2022/01/04 00:18:10;;;;;;;1.43;0.50;;;;;;;11.15;65.14;94647.91;4389286;32;20204;-61
2022/01/04 00:20:36;;;;;;;0.73;0.53;;;;;;;11.20;64.56;94644.34;4402205;32;20184;-61
2022/01/04 00:23:01;;;;;;;0.47;0.40;;;;;;;11.30;64.41;94642.13;4398091;32;20240;-61
2022/01/04 00:25:26;;;;;;;0.60;0.40;;;;;;;11.25;64.71;94629.00;4390373;32;20229;-61
2022/01/04 00:27:52;;;;;;;0.90;0.47;;;;;;;11.07;64.21;94629.31;4394016;32;20192;-61
2022/01/04 00:30:17;;;;;;;0.97;0.40;;;;;;;11.10;65.23;94623.41;4393337;32;20196;-61
2022/01/04 00:32:43;;;;;;;0.53;0.53;;;;;;;11.13;65.28;94625.44;4389702;32;20237;-61
2022/01/04 00:35:08;;;;;;;0.40;0.40;;;;;;;11.33;64.84;94616.81;4388646;32;20238;-61
2022/01/04 00:37:34;;;;;;;0.30;0.30;;;;;;;11.28;64.84;94624.94;4391462;32;20173;-62
2022/01/04 00:39:59;;;;;;;0.40;0.40;;;;;;;11.23;64.84;94611.81;4393322;32;20248;-63
2022/01/04 00:42:25;;;;;;;1.27;0.60;;;;;;;11.13;65.41;94610.28;4397264;32;20168;-64
2022/01/04 00:44:50;;;;;;;1.77;0.57;;;;;;;11.22;64.18;94610.28;4397257;32;20180;-63
2022/01/04 00:47:16;;;;;;;0.50;0.50;;;;;;;11.36;63.51;94598.38;4402274;32;20272;-64
2022/01/04 00:49:41;;;;;;;0.40;0.40;;;;;;;11.27;63.55;94587.00;4399346;32;20233;-64
2022/01/04 00:52:12;;;;;;;0.60;0.60;;;;;;;11.29;63.45;94584.03;4390209;32;20184;-64
2022/01/04 00:54:37;;;;;;;0.40;0.33;;;;;;;11.31;63.39;94579.19;4395392;32;20213;-64
2022/01/04 00:57:03;;;;;;;0.57;0.30;;;;;;;11.36;63.17;94579.00;4410703;32;20180;-61
2022/01/04 00:59:29;;;;;;;0.97;0.47;;;;;;;11.47;62.71;94571.47;4392156;32;20200;-62
2022/01/04 01:01:54;;;;;;;0.77;0.37;;;;;;;11.41;62.66;94565.56;4391797;32;20211;-62
2022/01/04 01:04:19;;;;;;;1.00;0.63;;;;;;;11.39;61.84;94565.09;4394080;32;20200;-62
2022/01/04 01:06:46;;;;;;;1.17;0.50;;;;;;;11.26;62.47;94558.87;4400390;32;20206;-62
2022/01/04 01:09:11;;;;;;;0.47;0.47;;;;;;;11.46;62.31;94548.66;4405773;32;20196;-62
2022/01/04 01:11:37;;;;;;;0.77;0.60;;;;;;;11.33;61.39;94563.72;4401140;32;20199;-63
2022/01/04 01:14:02;;;;;;;1.60;0.50;;;;;;;11.29;62.37;94568.09;4409751;32;20214;-62
2022/01/04 01:16:28;;;;;;;1.13;0.73;;;;;;;11.24;62.09;94553.09;4406922;32;20303;-62
2022/01/04 01:18:53;;;;;;;0.47;0.47;;;;;;;11.29;62.26;94546.84;4399871;32;20223;-63
2022/01/04 01:21:19;;;;;;;1.07;0.40;;;;;;;11.22;63.26;94547.31;4400247;32;20188;-64
2022/01/04 01:23:44;;;;;;;1.43;0.60;;;;;;;11.35;63.24;94541.06;4396899;32;20176;-64
2022/01/04 01:26:09;;;;;;;0.60;0.50;;;;;;;11.35;61.55;94538.41;4396458;32;20183;-64
2022/01/04 01:28:36;;;;;;;0.50;0.50;;;;;;;11.39;61.43;94543.87;4399295;32;20200;-64
2022/01/04 01:31:01;;;;;;;0.47;0.47;;;;;;;11.43;61.75;94541.34;4395144;32;20199;-64
2022/01/04 01:33:27;;;;;;;0.40;0.40;;;;;;;11.43;61.63;94536.81;4407097;32;20318;-63
2022/01/04 01:35:54;;;;;;;0.63;0.63;;;;;;;11.31;61.53;94529.50;4405764;32;20202;-63
2022/01/04 01:38:20;;;;;;;0.97;0.47;;;;;;;11.47;61.22;94534.28;4393240;32;20197;-64
2022/01/04 01:40:47;;;;;;;1.27;0.37;;;;;;;11.51;60.29;94529.91;4394714;32;20184;-64
2022/01/04 01:43:12;;;;;;;0.53;0.50;;;;;;;11.55;60.83;94530.84;4405715;32;20244;-64
2022/01/04 01:45:38;;;;;;;0.50;0.50;;;;;;;11.47;60.96;94528.97;4405309;32;20192;-64
2022/01/04 01:48:04;;;;;;;2.20;0.50;;;;;;;11.40;60.76;94521.53;4412292;32;20218;-63
2022/01/04 01:50:30;;;;;;;2.00;0.70;;;;;;;11.40;61.23;94508.25;4405032;32;20192;-61
2022/01/04 01:52:55;;;;;;;0.67;0.40;;;;;;;11.48;60.74;94490.69;4400240;32;20191;-62
2022/01/04 01:55:23;;;;;;;0.60;0.60;;;;;;;11.44;61.28;94489.78;4392233;32;20188;-62
2022/01/04 01:57:49;;;;;;;0.33;0.33;;;;;;;11.41;61.31;94480.59;4394241;32;20184;-62
2022/01/04 02:00:17;;;;;;;0.93;0.40;;;;;;;11.51;60.96;94474.91;4397737;32;20197;-62
2022/01/04 02:02:42;;;;;;;0.50;0.47;;;;;;;11.53;60.31;94474.59;4403569;32;20228;-62
2022/01/04 02:05:08;;;;;;;1.00;0.50;;;;;;;11.53;60.67;94462.09;4403325;32;20180;-62
2022/01/04 02:07:35;;;;;;;0.57;0.57;;;;;;;11.53;60.98;94454.13;4402018;32;20200;-62
2022/01/04 02:10:03;;;;;;;1.20;0.47;;;;;;;11.62;60.51;94451.44;4392027;32;20196;-61
2022/01/04 02:12:34;;;;;;;0.70;0.40;;;;;;;11.56;60.21;94455.38;4395132;32;20176;-61
2022/01/04 02:14:59;;;;;;;0.40;0.40;;;;;;;11.69;60.61;94443.72;4406827;32;20199;-61
2022/01/04 02:17:25;;;;;;;0.40;0.40;;;;;;;11.65;59.81;94432.94;4402098;32;20189;-62
2022/01/04 02:19:53;;;;;;;0.60;0.60;;;;;;;11.62;59.92;94448.78;4406960;32;20191;-62
2022/01/04 02:22:19;;;;;;;0.50;0.50;;;;;;;11.68;60.53;94434.97;4398378;32;20206;-62
2022/01/04 02:24:44;;;;;;;0.30;0.30;;;;;;;11.54;61.16;94431.78;4389659;32;20176;-62
2022/01/04 02:27:11;;;;;;;0.33;0.33;;;;;;;11.52;60.24;94418.03;4396147;32;20193;-62
2022/01/04 02:29:37;;;;;;;0.87;0.43;;;;;;;11.62;60.89;94412.38;4394288;32;20307;-63
2022/01/04 02:32:02;;;;;;;1.70;1.60;;;;;;;11.65;60.67;94416.22;4399639;32;20188;-62
2022/01/04 02:34:28;;;;;;;1.63;1.50;;;;;;;11.66;60.57;94402.62;4402561;32;20241;-63
2022/01/04 02:36:53;;;;;;;2.47;1.90;;;;;;;11.66;60.39;94399.19;4394558;32;20188;-63
2022/01/04 02:39:18;;;;;;;0.87;0.60;;;;;;;11.66;61.33;94394.66;4405945;32;20192;-62
2022/01/04 02:41:43;;;;;;;1.23;0.43;;;;;;;11.73;60.98;94394.16;4399854;32;20189;-63
2022/01/04 02:44:09;;;;;;;0.77;0.67;;;;;;;11.77;60.57;94383.69;4395570;32;20232;-63
2022/01/04 02:46:34;;;;;;;0.63;0.50;;;;;;;11.77;61.25;94386.34;4405173;32;20283;-62
2022/01/04 02:48:59;;;;;;;1.17;0.50;;;;;;;11.79;61.10;94368.22;4405025;32;20225;-62
2022/01/04 02:51:25;;;;;;;1.17;0.50;;;;;;;11.60;62.02;94364.09;4400467;32;20175;-63
2022/01/04 02:53:50;;;;;;;0.50;0.50;;;;;;;11.69;61.53;94356.06;4392339;32;20259;-62
2022/01/04 02:56:15;;;;;;;1.30;0.80;;;;;;;11.60;61.46;94344.72;4390882;32;20411;-63
2022/01/04 02:58:41;;;;;;;0.53;0.53;;;;;;;11.59;61.70;94335.97;4399667;32;20185;-63
2022/01/04 03:01:06;;;;;;;0.50;0.50;;;;;;;11.66;61.58;94338.09;4394579;32;20286;-63
2022/01/04 03:03:32;;;;;;;0.50;0.50;;;;;;;11.78;61.51;94340.09;4396251;32;20199;-62
2022/01/04 03:05:58;;;;;;;0.40;0.40;;;;;;;11.67;61.38;94327.16;4404139;32;20225;-62
2022/01/04 03:08:24;;;;;;;0.60;0.50;;;;;;;11.62;62.28;94322.06;4399253;32;20191;-61
2022/01/04 03:10:50;;;;;;;0.50;0.50;;;;;;;11.69;61.59;94327.59;4393421;32;20204;-63
2022/01/04 03:13:16;;;;;;;1.27;0.50;;;;;;;11.72;61.75;94318.22;4400775;32;20192;-63
2022/01/04 03:15:43;;;;;;;0.40;0.40;;;;;;;11.66;61.94;94317.63;4406076;32;20230;-62
2022/01/04 03:18:08;;;;;;;0.93;0.83;;;;;;;11.59;62.69;94308.63;4400049;32;20279;-63
2022/01/04 03:20:33;;;;;;;0.73;0.37;;;;;;;11.64;62.67;94309.19;4397090;32;20287;-62
2022/01/04 03:22:59;;;;;;;0.40;0.40;;;;;;;11.58;62.70;94304.41;4405762;32;20240;-63
2022/01/04 03:25:24;;;;;;;0.47;0.47;;;;;;;11.47;63.30;94303.25;4392259;32;20218;-62
2022/01/04 03:27:49;;;;;;;0.40;0.40;;;;;;;11.54;63.85;94298.97;4396137;32;20189;-63
2022/01/04 03:30:15;;;;;;;0.43;0.40;;;;;;;11.49;64.97;94285.88;4401516;32;20191;-63
2022/01/04 03:32:40;;;;;;;0.97;0.50;;;;;;;11.38;66.54;94274.09;4404214;32;20184;-63
2022/01/04 03:35:06;;;;;;;0.40;0.40;;;;;;;11.38;68.05;94268.78;4398358;32;20192;-62
2022/01/04 03:37:31;;;;;;;0.33;0.33;;;;;;;11.50;66.16;94260.88;4392789;32;20200;-62
2022/01/04 03:39:57;;;;;;;0.90;0.60;;;;;;;11.32;66.67;94259.47;4399241;32;20282;-62
2022/01/04 03:42:22;;;;;;;1.30;0.40;;;;;;;11.42;67.33;94253.00;4403790;32;20183;-62
2022/01/04 03:44:47;;;;;;;0.40;0.40;;;;;;;11.38;68.77;94255.53;4389229;32;20173;-62
2022/01/04 03:47:13;;;;;;;0.40;0.30;;;;;;;11.36;66.71;94253.19;4387633;32;20208;-62
2022/01/04 03:49:39;;;;;;;1.50;0.40;;;;;;;11.47;65.81;94232.31;4401578;32;20187;-63
2022/01/04 03:52:04;;;;;;;0.47;0.47;;;;;;;11.41;66.84;94212.38;4392094;32;20206;-63
2022/01/04 03:54:30;;;;;;;0.63;0.40;;;;;;;11.47;66.40;94211.06;4400375;32;20206;-62
2022/01/04 03:56:55;;;;;;;0.87;0.40;;;;;;;11.36;67.36;94204.59;4398011;32;20275;-62
2022/01/04 03:59:20;;;;;;;1.47;0.60;;;;;;;11.26;67.18;94202.34;4391276;32;20200;-62
2022/01/04 04:01:47;;;;;;;0.50;0.40;;;;;;;11.33;67.21;94194.63;4392249;32;20417;-63
2022/01/04 04:04:13;;;;;;;1.20;0.37;;;;;;;11.30;66.83;94193.41;4395952;32;20188;-63
2022/01/04 04:06:39;;;;;;;1.00;0.50;;;;;;;11.32;66.46;94180.59;4390663;32;20184;-62
2022/01/04 04:09:04;;;;;;;0.50;0.50;;;;;;;11.25;66.33;94195.47;4397955;32;20202;-62
2022/01/04 04:11:30;;;;;;;0.50;0.40;;;;;;;11.32;68.13;94180.59;4403551;32;20243;-61
2022/01/04 04:13:55;;;;;;;0.70;0.53;;;;;;;11.44;67.64;94171.09;4392423;32;20230;-63
2022/01/04 04:16:21;;;;;;;0.40;0.40;;;;;;;11.32;67.37;94169.97;4388399;32;20184;-63
2022/01/04 04:18:46;;;;;;;0.57;0.43;;;;;;;11.27;69.49;94166.72;4398111;32;20455;-63
2022/01/04 04:21:12;;;;;;;0.60;0.40;;;;;;;11.30;70.18;94160.78;4404331;32;20187;-63
2022/01/04 04:23:37;;;;;;;1.23;0.53;;;;;;;11.28;72.12;94173.59;4404027;32;20199;-63
2022/01/04 04:26:07;;;;;;;0.97;0.40;;;;;;;11.35;72.77;94168.53;4406368;32;20228;-62
2022/01/04 04:28:32;;;;;;;0.43;0.40;;;;;;;11.27;71.50;94162.19;4398816;32;20180;-62
2022/01/04 04:30:57;;;;;;;1.80;0.57;;;;;;;11.19;70.40;94171.03;4394260;32;20195;-62
2022/01/04 04:33:23;;;;;;;0.80;0.80;;;;;;;11.01;71.08;94165.06;4402103;32;20222;-62
2022/01/04 04:35:48;;;;;;;0.60;0.60;;;;;;;10.96;71.67;94165.25;4403983;32;20188;-62
2022/01/04 04:38:14;;;;;;;0.40;0.40;;;;;;;10.77;72.55;94153.53;4400446;32;20176;-63
2022/01/04 04:40:39;;;;;;;0.97;0.70;;;;;;;10.82;73.17;94156.75;4397723;32;20281;-63
2022/01/04 04:43:05;;;;;;;0.90;0.70;;;;;;;10.67;73.62;94154.69;4398997;32;20193;-63
2022/01/04 04:45:30;;;;;;;1.27;0.80;;;;;;;10.40;74.20;94144.56;4399946;32;20211;-62
2022/01/04 04:47:56;;;;;;;0.77;0.77;;;;;;;10.28;75.23;94143.38;4398405;32;20177;-62
2022/01/04 04:50:21;;;;;;;0.60;0.60;;;;;;;10.20;76.16;94143.41;4401449;32;20276;-63
2022/01/04 04:52:46;;;;;;;0.73;0.60;;;;;;;10.18;76.07;94135.00;4392555;32;20216;-63
2022/01/04 04:55:12;;;;;;;0.57;0.53;;;;;;;9.99;76.46;94128.19;4392010;32;20267;-62
2022/01/04 04:57:38;;;;;;;0.73;0.70;;;;;;;10.07;76.28;94121.31;4395673;32;20221;-63
2022/01/04 05:00:05;;;;;;;0.53;0.53;;;;;;;9.97;76.21;94121.69;4407786;32;20233;-62
2022/01/04 05:02:30;;;;;;;1.90;0.40;;;;;;;9.99;76.61;94122.91;4402096;32;20188;-62
2022/01/04 05:04:55;;;;;;;0.63;0.50;;;;;;;10.04;76.20;94111.34;4394709;32;20236;-62
2022/01/04 05:07:20;;;;;;;1.13;0.50;;;;;;;10.08;75.85;94112.28;4403871;32;20192;-62
2022/01/04 05:09:46;;;;;;;0.60;0.60;;;;;;;10.08;75.88;94106.97;4400422;32;20184;-62
2022/01/04 05:12:12;;;;;;;0.57;0.57;;;;;;;10.11;75.68;94101.03;4405201;32;20250;-63
2022/01/04 05:14:39;;;;;;;1.03;0.73;;;;;;;10.23;74.83;94105.66;4396215;32;20181;-64
2022/01/04 05:17:05;;;;;;;1.60;0.53;;;;;;;10.09;76.56;94103.22;4396043;32;20271;-63
2022/01/04 05:19:30;;;;;;;0.60;0.60;;;;;;;9.95;76.56;94108.75;4403631;32;20188;-62
2022/01/04 05:21:55;;;;;;;0.60;0.60;;;;;;;9.87;76.66;94104.28;4391045;32;20211;-63
2022/01/04 05:24:21;;;;;;;1.30;0.60;;;;;;;9.95;76.97;94102.69;4391115;32;20185;-62
2022/01/04 05:26:46;;;;;;;0.60;0.60;;;;;;;9.97;77.74;94100.50;4399441;32;20194;-63
2022/01/04 05:29:11;;;;;;;0.50;0.50;;;;;;;9.89;78.24;94094.13;4392336;32;20180;-62
2022/01/04 05:31:37;;;;;;;0.60;0.60;;;;;;;9.85;78.71;94087.91;4394163;32;20254;-62
2022/01/04 05:34:02;;;;;;;0.63;0.60;;;;;;;9.63;79.79;94085.50;4398322;32;20188;-62
2022/01/04 05:36:28;;;;;;;1.13;0.50;;;;;;;9.92;78.46;94076.84;4391821;32;20248;-61
2022/01/04 05:38:53;;;;;;;0.63;0.63;;;;;;;9.97;78.36;94085.38;4397392;32;20210;-62
2022/01/04 05:41:18;;;;;;;0.60;0.60;;;;;;;9.82;79.22;94085.13;4395603;32;20245;-61
2022/01/04 05:43:45;;;;;;;3.67;0.70;;;;;;;9.62;80.36;94076.78;4404660;32;20203;-62
2022/01/04 05:46:10;;;;;;;0.50;0.50;;;;;;;9.69;80.33;94086.13;4404801;32;20176;-62
2022/01/04 05:48:35;;;;;;;0.87;0.87;;;;;;;9.74;80.82;94080.66;4407839;32;20358;-61
2022/01/04 05:51:01;;;;;;;0.70;0.70;;;;;;;9.64;81.48;94082.56;4403674;32;20242;-61
2022/01/04 05:53:26;;;;;;;1.53;1.00;;;;;;;9.55;82.93;94084.47;4392240;32;20251;-62
2022/01/04 05:55:51;;;;;;;0.70;0.70;;;;;;;9.82;82.01;94077.19;4397607;32;20210;-62
2022/01/04 05:58:17;;;;;;;0.80;0.77;;;;;;;9.61;83.02;94077.09;4399585;32;20228;-62
2022/01/04 06:00:42;;;;;;;1.47;0.80;;;;;;;9.79;82.63;94075.94;4399319;32;20255;-62
2022/01/04 06:03:08;;;;;;;2.13;0.80;;;;;;;9.67;83.22;94075.84;4393661;32;20188;-62
2022/01/04 06:05:33;;;;;;;0.93;0.73;;;;;;;9.46;83.85;94081.06;4398173;32;20192;-62
2022/01/04 06:07:58;;;;;;;0.60;0.60;;;;;;;9.37;84.41;94076.88;4389434;32;20261;-61
2022/01/04 06:10:24;;;;;;;0.50;0.50;;;;;;;9.53;84.02;94076.06;4402491;32;20180;-61
2022/01/04 06:15:15;;;;;;;0.63;0.63;;;;;;;9.87;82.50;94075.12;4397028;32;20196;-62
2022/01/04 06:17:47;;;;;;;1.80;0.67;;;;;;;9.71;83.77;94082.06;4392299;32;20176;-62
2022/01/04 06:20:15;;;;;;;1.23;0.93;;;;;;;9.47;84.62;94087.91;4396988;32;20191;-62
2022/01/04 06:22:41;;;;;;;3.27;0.80;;;;;;;9.42;85.88;94087.28;4390367;32;20296;-62
2022/01/04 06:25:12;;;;;;;1.23;0.97;;;;;;;9.43;85.26;94081.69;4391649;32;20272;-62
2022/01/04 06:27:40;;;;;;;1.43;0.80;;;;;;;9.49;85.05;94079.66;4386567;32;20299;-63
2022/01/04 06:30:06;;;;;;;3.60;1.00;;;;;;;9.56;84.85;94078.06;4397069;32;20276;-62
2022/01/04 06:32:31;;;;;;;0.87;0.70;;;;;;;9.54;84.36;94063.59;4400634;32;20313;-62
2022/01/04 06:34:57;;;;;;;0.50;0.50;;;;;;;9.37;84.89;94067.06;4403184;32;20271;-62
2022/01/04 06:37:22;;;;;;;0.93;0.83;;;;;;;8.84;87.16;94064.84;4397040;32;20185;-62
2022/01/04 06:39:48;;;;;;;1.87;0.87;;;;;;;8.90;87.58;94064.37;4397422;32;20225;-62
2022/01/04 06:42:13;;;;;;;1.57;0.80;;;;;;;9.00;87.75;94065.13;4393013;32;20184;-62
2022/01/04 06:44:41;;;;;;;1.43;1.10;;;;;;;9.28;86.17;94047.81;4392809;32;20185;-62
2022/01/04 06:47:07;;;;;;;1.97;0.73;;;;;;;9.29;86.86;94050.13;4404976;32;20184;-62
2022/01/04 06:49:33;;;;;;;0.70;0.63;;;;;;;9.34;86.34;94049.19;4404835;32;20279;-62
2022/01/04 06:51:58;;;;;;;1.20;1.10;;;;;;;9.10;87.23;94035.72;4399857;32;20303;-62
2022/01/04 06:54:24;;;;;;;4.97;1.10;;;;;;;8.96;87.46;94035.88;4399171;32;20207;-62
2022/01/04 06:56:49;;;;;;;2.37;1.10;;;;;;;8.70;88.71;94033.31;4405189;32;20194;-62
2022/01/04 06:59:16;;;;;;;1.70;0.97;;;;;;;8.71;89.39;94032.22;4402398;32;20276;-62
2022/01/04 07:01:42;;;;;;;1.43;0.80;;;;;;;8.91;89.31;94022.84;4399444;32;20187;-62
2022/01/04 07:04:07;;;;;;;2.40;1.37;;;;;;;8.54;90.07;94029.56;4397604;32;20364;-63
2022/01/04 07:06:33;;;;;;;2.00;0.93;;;;;;;8.47;90.79;94018.69;4398257;32;20195;-62
2022/01/04 07:08:59;;;;;;;1.57;1.17;;;;;;;8.57;90.74;94024.44;4391114;32;20231;-62
2022/01/04 07:11:25;;;;;;;2.13;0.87;;;;;;;8.71;90.53;94032.22;4394361;32;20187;-62
2022/01/04 07:13:50;;;;;;;2.40;1.20;;;;;;;8.69;91.04;94028.31;4394141;32;20332;-62
2022/01/04 07:16:17;;;;;;;1.70;1.00;;;;;;;8.72;91.36;94027.69;4398769;32;20248;-62
2022/01/04 07:18:46;;;;;;;2.70;0.90;;;;;;;8.79;91.46;94026.13;4389695;32;20192;-62
2022/01/04 07:21:13;;;;;;;0.70;0.70;;;;;;;8.70;91.52;94027.22;4391714;32;20303;-63
2022/01/04 07:23:38;;;;;;;2.77;1.20;;;;;;;8.92;91.24;94017.25;4404814;32;20309;-62
2022/01/04 07:26:06;;;;;;;2.30;1.20;;;;;;;9.03;90.41;94012.38;4395768;32;20272;-62
2022/01/04 07:28:32;;;;;;;0.73;0.73;;;;;;;9.00;90.45;94015.66;4389660;32;20262;-62
2022/01/04 07:30:57;;;;;;;6.13;1.63;;;;;;;9.07;89.93;93996.66;4396845;32;20363;-62
2022/01/04 07:33:22;;;;;;;7.50;1.60;;;;;;;9.91;95.71;93991.28;4391869;32;20206;-62
2022/01/04 07:35:48;;;;;;;7.57;1.47;;;;;;;10.30;94.75;93994.63;4394712;32;20176;-62
2022/01/04 07:38:13;;;;;;;10.93;2.10;;;;;;;10.59;92.52;93993.78;4399556;32;20172;-62
2022/01/04 07:40:39;;;;;;;6.07;1.53;;;;;;;10.96;90.53;93982.19;4404450;32;20226;-62
2022/01/04 07:43:04;;;;;;;3.77;1.00;;;;;;;10.89;88.92;93983.81;4407532;32;20180;-62
2022/01/04 07:45:35;;;;;;;5.97;1.30;;;;;;;10.98;87.98;93972.00;4391188;32;20260;-61
2022/01/04 07:48:00;;;;;;;15.17;1.50;;;;;;;11.21;88.71;93964.44;4391146;32;20207;-62
2022/01/04 07:50:26;;;;;;;2.57;1.30;;;;;;;11.48;88.07;93959.56;4393364;32;20192;-62
2022/01/04 07:52:51;;;;;;;12.87;0.90;;;;;;;11.42;86.63;93960.91;4389364;32;20188;-63
2022/01/04 07:55:17;;;;;;;1.60;1.20;;;;;;;11.35;85.49;93956.13;4398075;32;20234;-65
2022/01/04 07:57:44;;;;;;;2.07;0.80;;;;;;;11.50;85.55;93955.47;4401828;32;20202;-65
2022/01/04 08:00:11;;;;;;;2.27;0.90;;;;;;;11.23;84.89;93948.13;4396750;32;20183;-65
2022/01/04 08:02:38;;;;;;;2.77;0.63;;;;;;;11.44;85.95;93945.38;4403345;32;20180;-65
2022/01/04 08:05:04;;;;;;;3.10;0.90;;;;;;;11.37;85.71;93948.59;4393101;32;20193;-64
2022/01/04 08:07:29;;;;;;;2.40;0.53;;;;;;;11.63;87.66;93927.81;4392652;32;20176;-65
2022/01/04 08:09:56;;;;;;;4.70;1.20;;;;;;;11.69;86.56;93923.78;4401414;32;20184;-64
2022/01/04 08:12:21;;;;;;;1.30;0.90;;;;;;;11.93;85.99;93925.66;4403359;32;20173;-64
2022/01/04 08:14:48;;;;;;;2.13;0.97;;;;;;;12.08;85.87;93908.22;4393594;32;20212;-65
2022/01/04 08:17:13;;;;;;;1.17;1.07;;;;;;;12.11;85.20;93918.19;4401642;32;20180;-63
2022/01/04 08:19:39;;;;;;;2.30;0.80;;;;;;;12.04;84.55;93912.69;4391913;32;20218;-64
2022/01/04 08:22:04;;;;;;;0.70;0.70;;;;;;;12.03;85.81;93900.53;4401020;32;20240;-64
2022/01/04 08:24:29;;;;;;;2.90;0.53;;;;;;;12.18;85.29;93899.03;4392927;32;20193;-64
2022/01/04 08:26:55;;;;;;;1.57;0.43;;;;;;;12.07;85.27;93889.97;4385541;32;20195;-65
2022/01/04 08:29:20;;;;;;;0.50;0.50;;;;;;;12.09;85.61;93888.53;4399476;32;20194;-65
2022/01/04 08:31:46;;;;;;;1.40;0.67;;;;;;;11.69;85.07;93881.28;4401186;32;20184;-65
2022/01/04 08:34:11;;;;;;;0.37;0.37;;;;;;;11.91;87.05;93877.41;4405444;32;20188;-64
2022/01/04 08:36:38;;;;;;;1.43;0.57;;;;;;;11.93;87.08;93882.38;4394705;32;20223;-65
2022/01/04 08:39:03;;;;;;;1.20;1.20;;;;;;;12.20;85.66;93867.56;4404203;32;20344;-65
2022/01/04 08:41:29;;;;;;;0.60;0.60;;;;;;;12.29;85.09;93860.19;4394142;32;20196;-65
2022/01/04 08:43:55;;;;;;;2.17;0.50;;;;;;;12.39;85.13;93854.41;4391409;32;20181;-64
2022/01/04 08:46:22;;;;;;;0.73;0.40;;;;;;;12.60;84.91;93848.84;4390337;32;20217;-65
2022/01/04 08:48:47;;;;;;;3.27;0.40;;;;;;;12.93;83.68;93848.50;4404538;32;20183;-66
2022/01/04 08:51:12;;;;;;;1.33;0.50;;;;;;;13.09;82.37;93860.69;4399496;32;20191;-65
2022/01/04 08:53:38;;;;;;;2.20;0.70;;;;;;;13.39;81.75;93852.28;4392604;32;20196;-63
2022/01/04 08:56:06;;;;;;;1.40;1.13;;;;;;;13.40;81.69;93837.84;4395685;32;20298;-65
2022/01/04 08:58:32;;;;;;;0.50;0.50;;;;;;;13.51;81.28;93822.84;4398185;32;20214;-64
2022/01/04 09:00:58;;;;;;;1.43;0.60;;;;;;;13.87;80.24;93823.59;4395242;32;20247;-65
2022/01/04 09:03:24;;;;;;;0.60;0.60;;;;;;;13.86;79.95;93828.16;4397883;32;20228;-65
2022/01/04 09:05:50;;;;;;;0.70;0.40;;;;;;;13.86;79.38;93816.72;4404071;32;20200;-65
2022/01/04 09:08:15;;;;;;;0.40;0.40;;;;;;;13.53;79.27;93817.94;4403941;32;20184;-65
2022/01/04 09:10:40;;;;;;;0.40;0.40;;;;;;;13.49;80.48;93825.13;4391240;32;20288;-65
2022/01/04 09:13:12;;;;;;;0.60;0.60;;;;;;;13.61;80.02;93813.56;4388602;32;20247;-64
2022/01/04 09:20:50;;;;;;;0.70;0.70;;;;;;;12.59;81.96;93799.41;4396579;32;20288;-65
2022/01/04 09:23:18;;;;;;;1.00;0.90;;;;;;;12.52;82.30;93802.66;4405531;32;20200;-65
2022/01/04 09:25:45;;;;;;;0.83;0.63;;;;;;;12.67;81.98;93811.78;4404212;32;20277;-66
2022/01/04 09:28:10;;;;;;;1.43;0.90;;;;;;;12.34;82.71;93806.78;4396440;32;20197;-65
2022/01/04 09:30:36;;;;;;;0.70;0.70;;;;;;;12.14;83.64;93802.44;4398007;32;20219;-65
2022/01/04 09:33:02;;;;;;;0.70;0.70;;;;;;;11.86;84.37;93799.78;4406469;32;20206;-65
2022/01/04 09:35:28;;;;;;;0.60;0.60;;;;;;;11.89;84.21;93805.22;4394336;32;20208;-65
2022/01/04 09:37:53;;;;;;;0.80;0.80;;;;;;;11.76;84.45;93800.25;4399900;32;20194;-65
2022/01/04 09:40:19;;;;;;;1.73;0.70;;;;;;;11.91;84.37;93789.69;4403060;32;20203;-64
2022/01/04 09:42:46;;;;;;;0.50;0.50;;;;;;;11.66;84.82;93791.63;4393734;32;20195;-65
2022/01/04 09:45:12;;;;;;;0.70;0.70;;;;;;;11.79;84.63;93786.34;4410447;32;20259;-65
2022/01/04 09:47:38;;;;;;;0.77;0.73;;;;;;;11.79;84.42;93775.69;4406587;32;20216;-65
2022/01/04 09:50:08;;;;;;;0.70;0.70;;;;;;;11.76;84.80;93779.00;4390781;32;20393;-64
2022/01/04 09:52:35;;;;;;;0.97;0.73;;;;;;;11.80;83.25;93771.94;4395094;32;20263;-65
2022/01/04 09:55:00;;;;;;;0.57;0.57;;;;;;;11.72;83.30;93760.31;4398611;32;20188;-65
2022/01/04 09:57:26;;;;;;;1.40;0.73;;;;;;;11.77;83.63;93761.97;4403997;32;20191;-65
2022/01/04 09:59:51;;;;;;;0.70;0.70;;;;;;;11.74;84.37;93765.28;4398528;32;20241;-64
2022/01/04 10:02:20;;;;;;;1.07;0.53;;;;;;;11.80;83.54;93748.03;4394555;32;20181;-65
2022/01/04 10:04:47;;;;;;;1.03;0.73;;;;;;;11.79;83.94;93751.78;4394023;32;20245;-65
2022/01/04 10:07:12;;;;;;;0.67;0.60;;;;;;;11.95;82.71;93752.59;4394879;32;20184;-64
2022/01/04 10:09:45;;;;;;;2.80;0.70;;;;;;;11.88;83.91;93749.75;4394683;32;20203;-65
2022/01/04 10:12:16;;;;;;;1.53;0.90;;;;;;;11.68;84.71;93738.97;4402103;32;20192;-64
2022/01/04 10:14:44;;;;;;;1.20;0.60;;;;;;;11.69;85.53;93743.16;4393290;32;20213;-65
2022/01/04 10:17:21;;;;;;;0.70;0.70;;;;;;;11.78;85.60;93736.97;4392752;32;20202;-65
2022/01/04 10:19:50;;;;;;;1.03;0.90;;;;;;;11.74;86.17;93733.41;4397039;32;20203;-65
2022/01/04 10:22:27;;;;;;;1.20;0.80;;;;;;;11.75;85.83;93734.94;4402646;32;20196;-65
2022/01/04 10:25:01;;;;;;;0.70;0.70;;;;;;;11.84;85.41;93733.72;4391231;32;20188;-65
2022/01/04 10:27:32;;;;;;;0.83;0.83;;;;;;;11.92;85.12;93727.47;4395480;32;20228;-64
2022/01/04 10:30:18;;;;;;;1.00;0.70;;;;;;;11.93;85.21;93726.34;4397024;32;20250;-64
2022/01/04 10:33:09;;;;;;;2.83;0.80;;;;;;;12.01;83.67;93716.69;4395976;32;20180;-65
2022/01/04 10:35:37;;;;;;;1.73;0.50;;;;;;;12.18;83.39;93711.03;4400039;32;20199;-64
2022/01/04 10:38:19;;;;;;;1.33;0.90;;;;;;;12.17;83.79;93698.88;4394985;32;20188;-65
2022/01/04 10:41:22;;;;;;;1.90;0.53;;;;;;;12.33;81.60;93702.28;4400661;32;20188;-65
2022/01/04 10:44:03;;;;;;;0.97;0.50;;;;;;;12.42;81.00;93693.38;4401121;32;20183;-64
2022/01/04 10:46:35;;;;;;;0.30;0.30;;;;;;;12.55;80.27;93698.25;4392702;32;20246;-65
2022/01/04 10:49:12;;;;;;;0.53;0.40;;;;;;;12.53;80.62;93691.72;4395960;32;20192;-64
2022/01/04 10:51:37;;;;;;;0.40;0.40;;;;;;;12.65;79.50;93683.66;4392193;32;20256;-64
2022/01/04 10:54:06;;;;;;;0.63;0.63;;;;;;;12.58;79.71;93691.47;4397196;32;20309;-64
2022/01/04 10:56:38;;;;;;;0.30;0.30;;;;;;;12.67;79.08;93681.41;4401455;32;20191;-65
2022/01/04 10:59:07;;;;;;;0.73;0.40;;;;;;;12.78;78.36;93678.97;4405470;32;20261;-65
2022/01/04 11:01:44;;;;;;;0.87;0.60;;;;;;;12.84;78.46;93675.72;4407453;32;20200;-64
2022/01/04 11:04:18;;;;;;;10.20;1.30;;;;;;;12.79;78.35;93669.88;4395096;32;20228;-59
2022/01/04 11:06:44;;;;;;;2.73;0.73;;;;;;;13.72;84.96;93660.72;4389140;32;20188;-62
2022/01/04 11:09:10;;;;;;;3.83;0.80;;;;;;;14.83;81.73;93660.63;4400029;32;20192;-60
2022/01/04 11:11:36;;;;;;;3.07;0.87;;;;;;;15.42;77.97;93654.50;4398833;32;20261;-58
2022/01/04 11:14:02;;;;;;;3.13;0.93;;;;;;;15.80;73.19;93650.72;4391779;32;20211;-58
2022/01/04 11:16:29;;;;;;;1.57;0.70;;;;;;;16.33;70.54;93638.97;4395954;32;20188;-58
2022/01/04 11:18:57;;;;;;;4.67;0.97;;;;;;;16.47;67.42;93647.88;4396045;32;20272;-56
2022/01/04 11:21:31;;;;;;;11.90;1.67;;;;;;;16.80;67.64;93628.25;4393468;32;20184;-59
2022/01/04 11:23:58;;;;;;;11.03;1.20;;;;;;;16.84;67.82;93625.56;4393887;32;20203;-60
2022/01/04 11:26:25;;;;;;;2.80;1.07;;;;;;;17.11;66.94;93626.88;4380286;32;20211;-60
2022/01/04 11:28:53;;;;;;;3.50;0.87;;;;;;;17.13;65.20;93616.53;4386528;32;20180;-60
2022/01/04 11:31:45;;;;;;;5.63;1.97;;;;;;;16.98;60.71;93609.59;4382365;32;20236;-60
2022/01/04 11:34:16;;;;;;;3.67;1.30;;;;;;;17.06;64.12;93613.81;4395364;32;20184;-59
2022/01/04 11:36:49;;;;;;;4.03;0.70;;;;;;;16.89;62.42;93598.44;4390606;32;20185;-59
2022/01/04 11:39:35;;;;;;;0.50;0.50;;;;;;;17.01;62.88;93583.97;4386738;32;20188;-61
2022/01/04 11:42:07;;;;;;;2.70;1.03;;;;;;;16.80;60.80;93577.38;4382212;32;20237;-59